43PA weather

Kolb Airport
Spring City, Pennsylvania, United States

Public forecast

Using degrees Fahrenheit for public forecast. Weather courtesy of forecast.io.

METAR (pilot weather report)

Closest report is Heritage Field, 4.8 nm (8.9 km) N. Retrieved 2019/07/15 18:54 UTC (21 minutes ago):

KPTW 151854Z AUTO 31006KT 10SM CLR 27/13 A3008 RMK AO2 SLP181 T02720133 $

TAF (pilot weather forecast)

Closest forecast is Philadelphia International Airport, 22.3 nm (41.3 km) SE. Retrieved 2019/07/15 18:23 UTC (52 minutes ago):

TAF KPHL 151720Z 1518/1624 29009KT P6SM SKC FM160000 26004KT P6SM SKC FM161200 22006KT P6SM SCT150